sensor_id;sensor_type;location;lat;lon;timestamp;P1;durP1;ratioP1;P2;durP2;ratioP2
68475;SDS011;55464;48.266;14.188;2023-04-25T00:01:29;1.38;;;1.20;;
68475;SDS011;55464;48.266;14.188;2023-04-25T00:03:55;1.23;;;1.13;;
68475;SDS011;55464;48.266;14.188;2023-04-25T00:06:20;1.42;;;1.15;;
68475;SDS011;55464;48.266;14.188;2023-04-25T00:08:46;1.50;;;1.40;;
68475;SDS011;55464;48.266;14.188;2023-04-25T00:11:12;1.45;;;1.35;;
68475;SDS011;55464;48.266;14.188;2023-04-25T00:13:38;1.63;;;1.50;;
68475;SDS011;55464;48.266;14.188;2023-04-25T00:16:06;1.80;;;1.40;;
68475;SDS011;55464;48.266;14.188;2023-04-25T00:18:32;1.50;;;1.40;;
68475;SDS011;55464;48.266;14.188;2023-04-25T00:20:58;2.47;;;1.27;;
68475;SDS011;55464;48.266;14.188;2023-04-25T00:23:24;4.90;;;1.65;;
68475;SDS011;55464;48.266;14.188;2023-04-25T00:25:49;1.55;;;1.40;;
68475;SDS011;55464;48.266;14.188;2023-04-25T00:28:15;3.10;;;1.60;;
68475;SDS011;55464;48.266;14.188;2023-04-25T00:30:41;2.35;;;1.50;;
68475;SDS011;55464;48.266;14.188;2023-04-25T00:33:07;1.42;;;1.33;;
68475;SDS011;55464;48.266;14.188;2023-04-25T00:35:33;1.50;;;1.40;;
68475;SDS011;55464;48.266;14.188;2023-04-25T00:37:59;4.13;;;1.52;;
68475;SDS011;55464;48.266;14.188;2023-04-25T00:40:25;1.48;;;1.20;;
68475;SDS011;55464;48.266;14.188;2023-04-25T00:42:54;1.63;;;1.33;;
68475;SDS011;55464;48.266;14.188;2023-04-25T00:45:19;1.65;;;1.45;;
68475;SDS011;55464;48.266;14.188;2023-04-25T00:47:45;1.75;;;1.65;;
68475;SDS011;55464;48.266;14.188;2023-04-25T00:50:12;1.45;;;1.35;;
68475;SDS011;55464;48.266;14.188;2023-04-25T00:52:38;3.33;;;2.00;;
68475;SDS011;55464;48.266;14.188;2023-04-25T00:55:06;1.95;;;1.48;;
68475;SDS011;55464;48.266;14.188;2023-04-25T00:57:32;2.60;;;1.30;;
68475;SDS011;55464;48.266;14.188;2023-04-25T00:59:58;2.70;;;1.63;;
68475;SDS011;55464;48.266;14.188;2023-04-25T01:02:24;3.75;;;1.42;;
68475;SDS011;55464;48.266;14.188;2023-04-25T01:04:50;1.40;;;1.30;;
68475;SDS011;55464;48.266;14.188;2023-04-25T01:07:16;3.72;;;1.45;;
68475;SDS011;55464;48.266;14.188;2023-04-25T01:09:42;4.60;;;2.00;;
68475;SDS011;55464;48.266;14.188;2023-04-25T01:12:07;2.22;;;1.60;;
68475;SDS011;55464;48.266;14.188;2023-04-25T01:14:33;1.85;;;1.58;;
68475;SDS011;55464;48.266;14.188;2023-04-25T01:16:59;3.22;;;1.80;;
68475;SDS011;55464;48.266;14.188;2023-04-25T01:19:24;1.80;;;1.70;;
68475;SDS011;55464;48.266;14.188;2023-04-25T01:21:50;2.30;;;1.85;;
68475;SDS011;55464;48.266;14.188;2023-04-25T01:24:15;5.53;;;1.70;;
68475;SDS011;55464;48.266;14.188;2023-04-25T01:26:42;2.53;;;2.08;;
68475;SDS011;55464;48.266;14.188;2023-04-25T01:29:17;1.60;;;1.50;;
68475;SDS011;55464;48.266;14.188;2023-04-25T01:31:44;2.35;;;2.10;;
68475;SDS011;55464;48.266;14.188;2023-04-25T01:34:10;1.85;;;1.73;;
68475;SDS011;55464;48.266;14.188;2023-04-25T01:36:36;3.10;;;1.90;;
68475;SDS011;55464;48.266;14.188;2023-04-25T01:39:02;3.50;;;1.90;;
68475;SDS011;55464;48.266;14.188;2023-04-25T01:41:27;1.83;;;1.73;;
68475;SDS011;55464;48.266;14.188;2023-04-25T01:43:53;2.05;;;1.80;;
68475;SDS011;55464;48.266;14.188;2023-04-25T01:46:19;1.63;;;1.40;;
68475;SDS011;55464;48.266;14.188;2023-04-25T01:48:44;1.85;;;1.73;;
68475;SDS011;55464;48.266;14.188;2023-04-25T01:51:10;3.38;;;1.95;;
68475;SDS011;55464;48.266;14.188;2023-04-25T01:53:36;3.92;;;1.65;;
68475;SDS011;55464;48.266;14.188;2023-04-25T01:56:02;2.20;;;2.00;;
68475;SDS011;55464;48.266;14.188;2023-04-25T01:58:28;2.45;;;1.70;;
68475;SDS011;55464;48.266;14.188;2023-04-25T02:00:53;2.13;;;1.90;;
68475;SDS011;55464;48.266;14.188;2023-04-25T02:03:19;1.90;;;1.67;;
68475;SDS011;55464;48.266;14.188;2023-04-25T02:05:45;2.22;;;1.70;;
68475;SDS011;55464;48.266;14.188;2023-04-25T02:08:10;1.50;;;1.40;;
68475;SDS011;55464;48.266;14.188;2023-04-25T02:10:36;2.65;;;1.60;;
68475;SDS011;55464;48.266;14.188;2023-04-25T02:13:01;2.25;;;1.83;;
68475;SDS011;55464;48.266;14.188;2023-04-25T02:15:27;1.88;;;1.52;;
68475;SDS011;55464;48.266;14.188;2023-04-25T02:17:53;2.30;;;2.08;;
68475;SDS011;55464;48.266;14.188;2023-04-25T02:20:20;2.10;;;1.80;;
68475;SDS011;55464;48.266;14.188;2023-04-25T02:22:47;2.22;;;1.92;;
68475;SDS011;55464;48.266;14.188;2023-04-25T02:25:12;2.33;;;1.75;;
68475;SDS011;55464;48.266;14.188;2023-04-25T02:27:38;1.70;;;1.60;;
68475;SDS011;55464;48.266;14.188;2023-04-25T02:30:04;2.05;;;1.80;;
68475;SDS011;55464;48.266;14.188;2023-04-25T02:32:31;4.30;;;1.70;;
68475;SDS011;55464;48.266;14.188;2023-04-25T02:34:59;2.00;;;1.75;;
68475;SDS011;55464;48.266;14.188;2023-04-25T02:37:29;1.77;;;1.67;;
68475;SDS011;55464;48.266;14.188;2023-04-25T02:39:55;2.78;;;1.75;;
68475;SDS011;55464;48.266;14.188;2023-04-25T02:42:20;1.80;;;1.70;;
68475;SDS011;55464;48.266;14.188;2023-04-25T02:44:46;1.85;;;1.70;;
68475;SDS011;55464;48.266;14.188;2023-04-25T02:47:11;1.90;;;1.70;;
68475;SDS011;55464;48.266;14.188;2023-04-25T02:49:37;1.88;;;1.67;;
68475;SDS011;55464;48.266;14.188;2023-04-25T02:52:02;2.50;;;1.45;;
68475;SDS011;55464;48.266;14.188;2023-04-25T02:54:27;2.17;;;1.88;;
68475;SDS011;55464;48.266;14.188;2023-04-25T02:56:53;2.63;;;1.60;;
68475;SDS011;55464;48.266;14.188;2023-04-25T02:59:18;1.85;;;1.67;;
68475;SDS011;55464;48.266;14.188;2023-04-25T03:01:43;1.73;;;1.60;;
68475;SDS011;55464;48.266;14.188;2023-04-25T03:04:10;2.13;;;1.70;;
68475;SDS011;55464;48.266;14.188;2023-04-25T03:06:35;1.77;;;1.60;;
68475;SDS011;55464;48.266;14.188;2023-04-25T03:09:01;1.95;;;1.50;;
68475;SDS011;55464;48.266;14.188;2023-04-25T03:11:26;1.65;;;1.52;;
68475;SDS011;55464;48.266;14.188;2023-04-25T03:13:52;1.70;;;1.58;;
68475;SDS011;55464;48.266;14.188;2023-04-25T03:16:17;2.55;;;1.80;;
68475;SDS011;55464;48.266;14.188;2023-04-25T03:18:42;1.80;;;1.70;;
68475;SDS011;55464;48.266;14.188;2023-04-25T03:21:08;1.98;;;1.70;;
68475;SDS011;55464;48.266;14.188;2023-04-25T03:23:33;2.08;;;1.95;;
68475;SDS011;55464;48.266;14.188;2023-04-25T03:25:59;1.90;;;1.80;;
68475;SDS011;55464;48.266;14.188;2023-04-25T03:28:24;2.08;;;1.70;;
68475;SDS011;55464;48.266;14.188;2023-04-25T03:30:50;1.80;;;1.70;;
68475;SDS011;55464;48.266;14.188;2023-04-25T03:33:15;3.40;;;1.80;;
68475;SDS011;55464;48.266;14.188;2023-04-25T03:35:41;2.17;;;1.90;;
68475;SDS011;55464;48.266;14.188;2023-04-25T03:38:07;1.40;;;1.30;;
68475;SDS011;55464;48.266;14.188;2023-04-25T03:40:33;3.60;;;1.70;;
68475;SDS011;55464;48.266;14.188;2023-04-25T03:42:58;2.75;;;1.42;;
68475;SDS011;55464;48.266;14.188;2023-04-25T03:45:24;2.08;;;1.90;;
68475;SDS011;55464;48.266;14.188;2023-04-25T03:47:49;2.00;;;1.80;;
68475;SDS011;55464;48.266;14.188;2023-04-25T03:50:15;2.42;;;2.00;;
68475;SDS011;55464;48.266;14.188;2023-04-25T03:52:40;1.95;;;1.85;;
68475;SDS011;55464;48.266;14.188;2023-04-25T03:55:06;2.75;;;1.95;;
68475;SDS011;55464;48.266;14.188;2023-04-25T03:57:32;1.90;;;1.80;;
68475;SDS011;55464;48.266;14.188;2023-04-25T03:59:57;4.65;;;2.83;;
68475;SDS011;55464;48.266;14.188;2023-04-25T04:02:22;2.00;;;1.70;;
68475;SDS011;55464;48.266;14.188;2023-04-25T04:04:48;4.68;;;2.05;;
68475;SDS011;55464;48.266;14.188;2023-04-25T04:07:13;3.08;;;2.20;;
68475;SDS011;55464;48.266;14.188;2023-04-25T04:09:39;2.72;;;2.53;;
68475;SDS011;55464;48.266;14.188;2023-04-25T04:12:04;3.00;;;2.80;;
68475;SDS011;55464;48.266;14.188;2023-04-25T04:14:30;3.53;;;3.00;;
68475;SDS011;55464;48.266;14.188;2023-04-25T04:16:55;5.45;;;2.90;;
68475;SDS011;55464;48.266;14.188;2023-04-25T04:19:21;2.60;;;2.40;;
68475;SDS011;55464;48.266;14.188;2023-04-25T04:21:46;2.30;;;2.10;;
68475;SDS011;55464;48.266;14.188;2023-04-25T04:24:11;6.03;;;2.80;;
68475;SDS011;55464;48.266;14.188;2023-04-25T04:26:37;5.65;;;2.50;;
68475;SDS011;55464;48.266;14.188;2023-04-25T04:29:03;2.25;;;2.05;;
68475;SDS011;55464;48.266;14.188;2023-04-25T04:31:29;2.85;;;2.65;;
68475;SDS011;55464;48.266;14.188;2023-04-25T04:33:55;2.63;;;2.40;;
68475;SDS011;55464;48.266;14.188;2023-04-25T04:36:20;3.13;;;2.20;;
68475;SDS011;55464;48.266;14.188;2023-04-25T04:38:47;2.10;;;1.90;;
68475;SDS011;55464;48.266;14.188;2023-04-25T04:41:12;2.65;;;2.45;;
68475;SDS011;55464;48.266;14.188;2023-04-25T04:43:37;2.70;;;1.70;;
68475;SDS011;55464;48.266;14.188;2023-04-25T04:46:04;2.72;;;2.53;;
68475;SDS011;55464;48.266;14.188;2023-04-25T04:48:33;4.18;;;2.70;;
68475;SDS011;55464;48.266;14.188;2023-04-25T04:50:59;5.05;;;2.40;;
68475;SDS011;55464;48.266;14.188;2023-04-25T04:53:25;3.53;;;2.50;;
68475;SDS011;55464;48.266;14.188;2023-04-25T04:55:50;2.20;;;1.98;;
68475;SDS011;55464;48.266;14.188;2023-04-25T04:58:16;2.25;;;2.05;;
68475;SDS011;55464;48.266;14.188;2023-04-25T05:00:41;2.50;;;2.22;;
68475;SDS011;55464;48.266;14.188;2023-04-25T05:03:07;2.70;;;2.50;;
68475;SDS011;55464;48.266;14.188;2023-04-25T05:05:32;3.38;;;2.53;;
68475;SDS011;55464;48.266;14.188;2023-04-25T05:07:58;3.15;;;2.53;;
68475;SDS011;55464;48.266;14.188;2023-04-25T05:10:23;3.47;;;3.17;;
68475;SDS011;55464;48.266;14.188;2023-04-25T05:12:49;4.93;;;2.22;;
68475;SDS011;55464;48.266;14.188;2023-04-25T05:15:14;4.75;;;2.30;;
68475;SDS011;55464;48.266;14.188;2023-04-25T05:17:40;3.03;;;2.58;;
68475;SDS011;55464;48.266;14.188;2023-04-25T05:20:06;4.35;;;2.30;;
68475;SDS011;55464;48.266;14.188;2023-04-25T05:22:34;2.83;;;2.63;;
68475;SDS011;55464;48.266;14.188;2023-04-25T05:24:59;2.20;;;2.00;;
68475;SDS011;55464;48.266;14.188;2023-04-25T05:27:24;2.88;;;2.42;;
68475;SDS011;55464;48.266;14.188;2023-04-25T05:29:50;3.63;;;3.13;;
68475;SDS011;55464;48.266;14.188;2023-04-25T05:32:16;2.45;;;2.10;;
68475;SDS011;55464;48.266;14.188;2023-04-25T05:34:41;3.42;;;2.17;;
68475;SDS011;55464;48.266;14.188;2023-04-25T05:37:07;2.67;;;2.25;;
68475;SDS011;55464;48.266;14.188;2023-04-25T05:39:32;3.40;;;2.50;;
68475;SDS011;55464;48.266;14.188;2023-04-25T05:41:57;3.60;;;3.10;;
68475;SDS011;55464;48.266;14.188;2023-04-25T05:44:23;3.35;;;2.80;;
68475;SDS011;55464;48.266;14.188;2023-04-25T05:46:48;3.80;;;2.88;;
68475;SDS011;55464;48.266;14.188;2023-04-25T05:49:14;3.50;;;3.20;;
68475;SDS011;55464;48.266;14.188;2023-04-25T05:51:40;7.28;;;4.55;;
68475;SDS011;55464;48.266;14.188;2023-04-25T05:54:05;7.70;;;4.22;;
68475;SDS011;55464;48.266;14.188;2023-04-25T05:56:30;6.45;;;4.32;;
68475;SDS011;55464;48.266;14.188;2023-04-25T05:58:56;5.28;;;3.40;;
68475;SDS011;55464;48.266;14.188;2023-04-25T06:01:22;5.55;;;2.85;;
68475;SDS011;55464;48.266;14.188;2023-04-25T06:03:47;3.28;;;2.53;;
68475;SDS011;55464;48.266;14.188;2023-04-25T06:06:13;3.20;;;2.13;;
68475;SDS011;55464;48.266;14.188;2023-04-25T06:08:38;2.40;;;2.17;;
68475;SDS011;55464;48.266;14.188;2023-04-25T06:11:04;2.45;;;1.98;;
68475;SDS011;55464;48.266;14.188;2023-04-25T06:13:30;2.85;;;2.38;;
68475;SDS011;55464;48.266;14.188;2023-04-25T06:15:55;2.92;;;2.50;;
68475;SDS011;55464;48.266;14.188;2023-04-25T06:18:20;2.33;;;2.13;;
68475;SDS011;55464;48.266;14.188;2023-04-25T06:20:46;2.65;;;2.45;;
68475;SDS011;55464;48.266;14.188;2023-04-25T06:23:11;3.65;;;2.40;;
68475;SDS011;55464;48.266;14.188;2023-04-25T06:25:36;3.65;;;2.30;;
68475;SDS011;55464;48.266;14.188;2023-04-25T06:28:02;4.65;;;2.20;;
68475;SDS011;55464;48.266;14.188;2023-04-25T06:30:27;3.10;;;2.30;;
68475;SDS011;55464;48.266;14.188;2023-04-25T06:32:53;2.35;;;2.08;;
68475;SDS011;55464;48.266;14.188;2023-04-25T06:35:19;2.17;;;1.98;;
68475;SDS011;55464;48.266;14.188;2023-04-25T06:37:44;3.53;;;2.30;;
68475;SDS011;55464;48.266;14.188;2023-04-25T06:40:10;3.00;;;2.47;;
68475;SDS011;55464;48.266;14.188;2023-04-25T06:42:36;3.38;;;2.72;;
68475;SDS011;55464;48.266;14.188;2023-04-25T06:45:01;5.18;;;3.10;;
68475;SDS011;55464;48.266;14.188;2023-04-25T06:47:27;3.10;;;2.00;;
68475;SDS011;55464;48.266;14.188;2023-04-25T06:49:52;2.60;;;2.08;;
68475;SDS011;55464;48.266;14.188;2023-04-25T06:52:18;3.65;;;2.65;;
68475;SDS011;55464;48.266;14.188;2023-04-25T06:54:43;5.82;;;2.65;;
68475;SDS011;55464;48.266;14.188;2023-04-25T06:57:09;2.28;;;2.00;;
68475;SDS011;55464;48.266;14.188;2023-04-25T06:59:35;4.03;;;2.10;;
68475;SDS011;55464;48.266;14.188;2023-04-25T07:02:00;2.97;;;2.10;;
68475;SDS011;55464;48.266;14.188;2023-04-25T07:04:26;3.95;;;2.40;;
68475;SDS011;55464;48.266;14.188;2023-04-25T07:06:51;2.20;;;2.00;;
68475;SDS011;55464;48.266;14.188;2023-04-25T07:09:16;2.70;;;2.10;;
68475;SDS011;55464;48.266;14.188;2023-04-25T07:11:42;4.10;;;2.30;;
68475;SDS011;55464;48.266;14.188;2023-04-25T07:14:07;2.33;;;2.13;;
68475;SDS011;55464;48.266;14.188;2023-04-25T07:16:33;2.38;;;2.08;;
68475;SDS011;55464;48.266;14.188;2023-04-25T07:18:58;4.10;;;2.40;;
68475;SDS011;55464;48.266;14.188;2023-04-25T07:21:24;2.90;;;2.45;;
68475;SDS011;55464;48.266;14.188;2023-04-25T07:23:50;2.45;;;2.25;;
68475;SDS011;55464;48.266;14.188;2023-04-25T07:26:16;2.90;;;2.60;;
68475;SDS011;55464;48.266;14.188;2023-04-25T07:28:42;6.28;;;2.55;;
68475;SDS011;55464;48.266;14.188;2023-04-25T07:31:08;2.83;;;2.50;;
68475;SDS011;55464;48.266;14.188;2023-04-25T07:33:34;4.00;;;2.78;;
68475;SDS011;55464;48.266;14.188;2023-04-25T07:35:59;3.72;;;2.15;;
68475;SDS011;55464;48.266;14.188;2023-04-25T07:38:25;4.07;;;2.13;;
68475;SDS011;55464;48.266;14.188;2023-04-25T07:40:50;3.40;;;2.38;;
68475;SDS011;55464;48.266;14.188;2023-04-25T07:43:16;3.72;;;2.17;;
68475;SDS011;55464;48.266;14.188;2023-04-25T07:45:42;2.60;;;2.20;;
68475;SDS011;55464;48.266;14.188;2023-04-25T07:48:11;3.35;;;2.70;;
68475;SDS011;55464;48.266;14.188;2023-04-25T07:50:41;4.32;;;1.92;;
68475;SDS011;55464;48.266;14.188;2023-04-25T07:53:06;3.08;;;2.38;;
68475;SDS011;55464;48.266;14.188;2023-04-25T07:55:32;3.65;;;1.95;;
68475;SDS011;55464;48.266;14.188;2023-04-25T07:57:57;3.95;;;2.10;;
68475;SDS011;55464;48.266;14.188;2023-04-25T08:00:22;4.85;;;2.58;;
68475;SDS011;55464;48.266;14.188;2023-04-25T08:02:48;2.25;;;1.88;;
68475;SDS011;55464;48.266;14.188;2023-04-25T08:05:13;3.20;;;2.13;;
68475;SDS011;55464;48.266;14.188;2023-04-25T08:07:40;2.78;;;2.22;;
68475;SDS011;55464;48.266;14.188;2023-04-25T08:10:06;4.43;;;2.40;;
68475;SDS011;55464;48.266;14.188;2023-04-25T08:12:33;4.97;;;2.88;;
68475;SDS011;55464;48.266;14.188;2023-04-25T08:14:58;2.17;;;1.98;;
68475;SDS011;55464;48.266;14.188;2023-04-25T08:17:23;1.80;;;1.70;;
68475;SDS011;55464;48.266;14.188;2023-04-25T08:19:49;3.28;;;2.05;;
68475;SDS011;55464;48.266;14.188;2023-04-25T08:22:14;5.20;;;1.77;;
68475;SDS011;55464;48.266;14.188;2023-04-25T08:24:40;4.07;;;1.90;;
68475;SDS011;55464;48.266;14.188;2023-04-25T08:27:06;3.53;;;1.90;;
68475;SDS011;55464;48.266;14.188;2023-04-25T08:29:32;3.13;;;2.03;;
68475;SDS011;55464;48.266;14.188;2023-04-25T08:31:58;3.22;;;2.25;;
68475;SDS011;55464;48.266;14.188;2023-04-25T08:34:24;4.25;;;2.05;;
68475;SDS011;55464;48.266;14.188;2023-04-25T08:36:50;2.60;;;2.15;;
68475;SDS011;55464;48.266;14.188;2023-04-25T08:39:16;2.60;;;2.00;;
68475;SDS011;55464;48.266;14.188;2023-04-25T08:41:41;2.95;;;2.25;;
68475;SDS011;55464;48.266;14.188;2023-04-25T08:44:08;3.05;;;2.63;;
68475;SDS011;55464;48.266;14.188;2023-04-25T08:46:35;3.38;;;2.10;;
68475;SDS011;55464;48.266;14.188;2023-04-25T08:49:03;4.50;;;2.00;;
68475;SDS011;55464;48.266;14.188;2023-04-25T08:51:30;2.20;;;2.00;;
68475;SDS011;55464;48.266;14.188;2023-04-25T08:53:57;2.65;;;2.00;;
68475;SDS011;55464;48.266;14.188;2023-04-25T08:56:33;3.30;;;1.90;;
68475;SDS011;55464;48.266;14.188;2023-04-25T08:58:59;2.17;;;1.90;;
68475;SDS011;55464;48.266;14.188;2023-04-25T09:01:26;3.00;;;1.92;;
68475;SDS011;55464;48.266;14.188;2023-04-25T09:03:52;4.03;;;2.42;;
68475;SDS011;55464;48.266;14.188;2023-04-25T09:06:18;3.88;;;2.05;;
68475;SDS011;55464;48.266;14.188;2023-04-25T09:08:44;5.00;;;2.17;;
68475;SDS011;55464;48.266;14.188;2023-04-25T09:11:10;3.50;;;2.20;;
68475;SDS011;55464;48.266;14.188;2023-04-25T09:13:35;3.25;;;2.42;;
68475;SDS011;55464;48.266;14.188;2023-04-25T09:16:01;2.78;;;2.33;;
68475;SDS011;55464;48.266;14.188;2023-04-25T09:18:27;6.25;;;2.28;;
68475;SDS011;55464;48.266;14.188;2023-04-25T09:20:58;4.03;;;2.53;;
68475;SDS011;55464;48.266;14.188;2023-04-25T09:23:30;3.17;;;2.55;;
68475;SDS011;55464;48.266;14.188;2023-04-25T09:26:05;3.80;;;2.10;;
68475;SDS011;55464;48.266;14.188;2023-04-25T09:28:32;2.55;;;2.03;;
68475;SDS011;55464;48.266;14.188;2023-04-25T09:31:00;7.57;;;2.45;;
68475;SDS011;55464;48.266;14.188;2023-04-25T09:33:32;4.00;;;2.25;;
68475;SDS011;55464;48.266;14.188;2023-04-25T09:36:04;3.60;;;2.47;;
68475;SDS011;55464;48.266;14.188;2023-04-25T09:38:32;3.28;;;2.10;;
68475;SDS011;55464;48.266;14.188;2023-04-25T09:41:05;7.13;;;2.40;;
68475;SDS011;55464;48.266;14.188;2023-04-25T09:43:31;2.90;;;2.17;;
68475;SDS011;55464;48.266;14.188;2023-04-25T09:45:56;3.03;;;2.13;;
68475;SDS011;55464;48.266;14.188;2023-04-25T09:48:26;5.90;;;2.28;;
68475;SDS011;55464;48.266;14.188;2023-04-25T09:53:41;3.17;;;1.83;;
68475;SDS011;55464;48.266;14.188;2023-04-25T09:56:08;2.75;;;2.08;;
68475;SDS011;55464;48.266;14.188;2023-04-25T09:58:35;4.32;;;2.03;;
68475;SDS011;55464;48.266;14.188;2023-04-25T10:01:03;4.55;;;1.98;;
68475;SDS011;55464;48.266;14.188;2023-04-25T10:03:30;3.85;;;1.48;;
68475;SDS011;55464;48.266;14.188;2023-04-25T10:06:00;4.10;;;1.77;;
68475;SDS011;55464;48.266;14.188;2023-04-25T10:08:32;2.88;;;1.90;;
68475;SDS011;55464;48.266;14.188;2023-04-25T10:11:00;4.30;;;1.98;;
68475;SDS011;55464;48.266;14.188;2023-04-25T10:13:27;4.30;;;2.17;;
68475;SDS011;55464;48.266;14.188;2023-04-25T10:15:54;1.20;;;1.00;;
68475;SDS011;55464;48.266;14.188;2023-04-25T10:18:21;2.42;;;0.95;;
68475;SDS011;55464;48.266;14.188;2023-04-25T10:20:47;0.90;;;0.90;;
68475;SDS011;55464;48.266;14.188;2023-04-25T10:23:13;0.60;;;0.52;;
68475;SDS011;55464;48.266;14.188;2023-04-25T10:25:40;2.05;;;0.57;;
68475;SDS011;55464;48.266;14.188;2023-04-25T10:28:06;2.25;;;0.60;;
68475;SDS011;55464;48.266;14.188;2023-04-25T10:30:32;1.13;;;0.80;;
68475;SDS011;55464;48.266;14.188;2023-04-25T10:32:58;0.95;;;0.95;;
68475;SDS011;55464;48.266;14.188;2023-04-25T10:35:25;1.35;;;0.95;;
68475;SDS011;55464;48.266;14.188;2023-04-25T10:38:04;3.63;;;0.90;;
68475;SDS011;55464;48.266;14.188;2023-04-25T10:40:33;4.32;;;1.02;;
68475;SDS011;55464;48.266;14.188;2023-04-25T10:45:55;1.40;;;1.10;;
68475;SDS011;55464;48.266;14.188;2023-04-25T10:48:24;2.58;;;1.48;;
68475;SDS011;55464;48.266;14.188;2023-04-25T10:51:15;1.38;;;0.85;;
68475;SDS011;55464;48.266;14.188;2023-04-25T10:56:23;1.50;;;1.10;;
68475;SDS011;55464;48.266;14.188;2023-04-25T10:58:51;1.33;;;0.80;;
68475;SDS011;55464;48.266;14.188;2023-04-25T11:01:20;0.85;;;0.60;;
68475;SDS011;55464;48.266;14.188;2023-04-25T11:03:49;1.30;;;0.82;;
68475;SDS011;55464;48.266;14.188;2023-04-25T11:06:23;1.05;;;0.70;;
68475;SDS011;55464;48.266;14.188;2023-04-25T11:08:57;3.13;;;0.82;;
68475;SDS011;55464;48.266;14.188;2023-04-25T11:11:26;0.65;;;0.60;;
68475;SDS011;55464;48.266;14.188;2023-04-25T11:13:53;0.95;;;0.88;;
68475;SDS011;55464;48.266;14.188;2023-04-25T11:16:19;1.98;;;0.80;;
68475;SDS011;55464;48.266;14.188;2023-04-25T11:18:44;0.80;;;0.80;;
68475;SDS011;55464;48.266;14.188;2023-04-25T11:21:10;1.52;;;0.68;;
68475;SDS011;55464;48.266;14.188;2023-04-25T11:23:36;1.00;;;0.77;;
68475;SDS011;55464;48.266;14.188;2023-04-25T11:26:02;1.40;;;0.90;;
68475;SDS011;55464;48.266;14.188;2023-04-25T11:28:28;0.70;;;0.70;;
68475;SDS011;55464;48.266;14.188;2023-04-25T11:30:54;0.50;;;0.50;;
68475;SDS011;55464;48.266;14.188;2023-04-25T11:33:24;0.60;;;0.60;;
68475;SDS011;55464;48.266;14.188;2023-04-25T11:35:50;0.40;;;0.40;;
68475;SDS011;55464;48.266;14.188;2023-04-25T11:38:16;0.73;;;0.55;;
68475;SDS011;55464;48.266;14.188;2023-04-25T11:40:41;1.77;;;0.68;;
68475;SDS011;55464;48.266;14.188;2023-04-25T11:43:07;1.35;;;0.60;;
68475;SDS011;55464;48.266;14.188;2023-04-25T11:45:34;0.88;;;0.60;;
68475;SDS011;55464;48.266;14.188;2023-04-25T11:48:02;0.77;;;0.52;;
68475;SDS011;55464;48.266;14.188;2023-04-25T11:50:28;0.73;;;0.73;;
68475;SDS011;55464;48.266;14.188;2023-04-25T11:52:55;1.00;;;0.70;;
68475;SDS011;55464;48.266;14.188;2023-04-25T11:55:21;1.20;;;1.10;;
68475;SDS011;55464;48.266;14.188;2023-04-25T11:57:48;1.50;;;1.40;;
68475;SDS011;55464;48.266;14.188;2023-04-25T12:00:19;1.27;;;1.17;;
68475;SDS011;55464;48.266;14.188;2023-04-25T12:02:46;3.85;;;1.30;;
68475;SDS011;55464;48.266;14.188;2023-04-25T12:05:16;1.27;;;1.17;;
68475;SDS011;55464;48.266;14.188;2023-04-25T12:07:41;1.35;;;1.10;;
68475;SDS011;55464;48.266;14.188;2023-04-25T12:12:34;1.52;;;1.10;;
68475;SDS011;55464;48.266;14.188;2023-04-25T12:15:16;1.38;;;0.80;;
68475;SDS011;55464;48.266;14.188;2023-04-25T12:17:49;0.98;;;0.98;;
68475;SDS011;55464;48.266;14.188;2023-04-25T12:20:17;1.55;;;0.95;;
68475;SDS011;55464;48.266;14.188;2023-04-25T12:22:49;1.67;;;1.17;;
68475;SDS011;55464;48.266;14.188;2023-04-25T12:28:18;2.20;;;0.80;;
68475;SDS011;55464;48.266;14.188;2023-04-25T12:30:58;1.65;;;0.93;;
68475;SDS011;55464;48.266;14.188;2023-04-25T12:33:24;0.88;;;0.70;;
68475;SDS011;55464;48.266;14.188;2023-04-25T12:35:54;0.50;;;0.50;;
68475;SDS011;55464;48.266;14.188;2023-04-25T12:40:48;1.73;;;0.60;;
68475;SDS011;55464;48.266;14.188;2023-04-25T12:43:13;1.30;;;0.75;;
68475;SDS011;55464;48.266;14.188;2023-04-25T12:45:39;2.00;;;0.77;;
68475;SDS011;55464;48.266;14.188;2023-04-25T12:48:05;1.23;;;1.10;;
68475;SDS011;55464;48.266;14.188;2023-04-25T12:50:30;0.65;;;0.60;;
68475;SDS011;55464;48.266;14.188;2023-04-25T12:52:56;2.40;;;0.90;;
68475;SDS011;55464;48.266;14.188;2023-04-25T12:55:21;1.70;;;0.80;;
68475;SDS011;55464;48.266;14.188;2023-04-25T12:57:46;1.70;;;0.88;;
68475;SDS011;55464;48.266;14.188;2023-04-25T13:00:12;4.15;;;0.90;;
68475;SDS011;55464;48.266;14.188;2023-04-25T13:02:39;0.50;;;0.50;;
68475;SDS011;55464;48.266;14.188;2023-04-25T13:05:05;0.77;;;0.70;;
68475;SDS011;55464;48.266;14.188;2023-04-25T13:07:31;1.50;;;0.82;;
68475;SDS011;55464;48.266;14.188;2023-04-25T13:09:56;0.55;;;0.55;;
68475;SDS011;55464;48.266;14.188;2023-04-25T13:12:22;1.65;;;0.60;;
68475;SDS011;55464;48.266;14.188;2023-04-25T13:14:47;0.90;;;0.50;;
68475;SDS011;55464;48.266;14.188;2023-04-25T13:17:12;2.25;;;0.70;;
68475;SDS011;55464;48.266;14.188;2023-04-25T13:19:38;0.57;;;0.57;;
68475;SDS011;55464;48.266;14.188;2023-04-25T13:22:04;0.75;;;0.70;;
68475;SDS011;55464;48.266;14.188;2023-04-25T13:24:29;1.45;;;0.82;;
68475;SDS011;55464;48.266;14.188;2023-04-25T13:26:54;1.10;;;0.90;;
68475;SDS011;55464;48.266;14.188;2023-04-25T13:29:20;2.28;;;1.35;;
68475;SDS011;55464;48.266;14.188;2023-04-25T13:31:45;1.98;;;1.23;;
68475;SDS011;55464;48.266;14.188;2023-04-25T13:34:11;1.77;;;1.05;;
68475;SDS011;55464;48.266;14.188;2023-04-25T13:36:37;2.38;;;1.17;;
68475;SDS011;55464;48.266;14.188;2023-04-25T13:39:03;2.85;;;1.23;;
68475;SDS011;55464;48.266;14.188;2023-04-25T13:41:29;1.40;;;1.30;;
68475;SDS011;55464;48.266;14.188;2023-04-25T13:43:55;3.40;;;1.42;;
68475;SDS011;55464;48.266;14.188;2023-04-25T13:46:20;1.83;;;1.30;;
68475;SDS011;55464;48.266;14.188;2023-04-25T13:48:46;1.58;;;1.00;;
68475;SDS011;55464;48.266;14.188;2023-04-25T13:51:15;2.80;;;1.02;;
68475;SDS011;55464;48.266;14.188;2023-04-25T13:53:42;1.17;;;1.08;;
68475;SDS011;55464;48.266;14.188;2023-04-25T13:56:08;1.85;;;1.25;;
68475;SDS011;55464;48.266;14.188;2023-04-25T13:58:34;1.80;;;1.08;;
68475;SDS011;55464;48.266;14.188;2023-04-25T14:01:00;0.98;;;0.93;;
68475;SDS011;55464;48.266;14.188;2023-04-25T14:03:26;1.13;;;1.05;;
68475;SDS011;55464;48.266;14.188;2023-04-25T14:05:51;1.88;;;1.05;;
68475;SDS011;55464;48.266;14.188;2023-04-25T14:08:17;1.13;;;1.10;;
68475;SDS011;55464;48.266;14.188;2023-04-25T14:10:42;2.25;;;1.10;;
68475;SDS011;55464;48.266;14.188;2023-04-25T14:13:07;0.88;;;0.88;;
68475;SDS011;55464;48.266;14.188;2023-04-25T14:15:33;1.95;;;1.25;;
68475;SDS011;55464;48.266;14.188;2023-04-25T14:17:59;1.77;;;1.00;;
68475;SDS011;55464;48.266;14.188;2023-04-25T14:20:25;1.42;;;0.90;;
68475;SDS011;55464;48.266;14.188;2023-04-25T14:22:51;0.65;;;0.60;;
68475;SDS011;55464;48.266;14.188;2023-04-25T14:25:18;0.70;;;0.70;;
68475;SDS011;55464;48.266;14.188;2023-04-25T14:27:44;0.50;;;0.50;;
68475;SDS011;55464;48.266;14.188;2023-04-25T14:30:14;1.75;;;1.00;;
68475;SDS011;55464;48.266;14.188;2023-04-25T14:32:40;0.93;;;0.88;;
68475;SDS011;55464;48.266;14.188;2023-04-25T14:35:05;1.30;;;0.90;;
68475;SDS011;55464;48.266;14.188;2023-04-25T14:37:32;1.35;;;1.00;;
68475;SDS011;55464;48.266;14.188;2023-04-25T14:39:57;0.80;;;0.80;;
68475;SDS011;55464;48.266;14.188;2023-04-25T14:42:23;1.88;;;0.90;;
68475;SDS011;55464;48.266;14.188;2023-04-25T14:44:48;0.70;;;0.70;;